Time;durP1;ratioP1;P1;durP2;ratioP2;P2;SDS_P1;SDS_P2;PMS_P1;PMS_P2;Temp;Humidity;BMP_temperature;BMP_pressure;BME280_temperature;BME280_humidity;BME280_pressure;Samples;Min_cycle;Max_cycle;Signal;HPM_P1;HPM_P2
2021/09/23 00:00:05;;;;;;;9.57;7.67;;;;;;;13.26;65.63;97391.78;5094309;28;20435;-67
2021/09/23 00:05:18;;;;;;;12.73;9.30;;;;;;;13.18;66.53;97394.41;5088884;28;20456;-65
2021/09/23 00:07:46;;;;;;;15.93;9.43;;;;;;;13.24;66.45;97395.56;5093396;28;20419;-65
2021/09/23 00:10:15;;;;;;;15.27;8.97;;;;;;;13.12;66.21;97397.69;5093441;28;20459;-67
2021/09/23 00:12:41;;;;;;;12.30;8.40;;;;;;;13.15;66.34;97403.47;5092960;28;20423;-65
2021/09/23 00:15:07;;;;;;;13.90;8.60;;;;;;;13.18;66.07;97399.69;5096887;28;20431;-66
2021/09/23 00:17:33;;;;;;;13.73;9.20;;;;;;;13.15;66.32;97398.19;5094049;28;20423;-68
2021/09/23 00:19:59;;;;;;;17.30;8.90;;;;;;;13.19;66.09;97391.59;5094300;28;20446;-65
2021/09/23 00:22:24;;;;;;;9.77;8.70;;;;;;;13.22;66.28;97390.47;5093990;28;20185;-64
2021/09/23 00:24:50;;;;;;;16.30;9.20;;;;;;;13.23;66.11;97378.97;5095389;28;20182;-67
2021/09/23 00:27:16;;;;;;;15.83;9.07;;;;;;;13.22;66.02;97382.59;5094155;28;20182;-67
2021/09/23 00:29:42;;;;;;;13.27;9.37;;;;;;;13.23;66.00;97375.50;5092020;28;20216;-68
2021/09/23 00:32:07;;;;;;;12.67;9.27;;;;;;;13.17;66.29;97371.72;5093751;28;20692;-66
2021/09/23 00:34:33;;;;;;;14.83;8.90;;;;;;;13.14;65.90;97362.34;5090272;28;20239;-66
2021/09/23 00:36:59;;;;;;;12.30;8.47;;;;;;;13.12;66.33;97358.22;5091185;28;20197;-65
2021/09/23 00:39:24;;;;;;;13.70;8.40;;;;;;;13.11;66.39;97357.41;5093585;28;20621;-64
2021/09/23 00:41:52;;;;;;;14.80;9.00;;;;;;;13.10;66.85;97358.41;5093139;28;20635;-64
2021/09/23 00:44:19;;;;;;;10.30;8.33;;;;;;;13.02;66.98;97359.22;5094446;28;20921;-66
2021/09/23 00:46:46;;;;;;;11.60;8.50;;;;;;;13.03;67.03;97360.84;5093830;28;20428;-66
2021/09/23 00:49:12;;;;;;;11.00;8.10;;;;;;;12.92;67.15;97353.28;5092627;28;20467;-68
2021/09/23 00:51:38;;;;;;;18.53;9.00;;;;;;;13.08;66.79;97356.91;5095679;28;20946;-65
2021/09/23 00:54:04;;;;;;;10.20;8.50;;;;;;;13.04;66.90;97359.88;5107055;28;20905;-67
2021/09/23 00:56:30;;;;;;;10.50;8.13;;;;;;;13.05;66.84;97364.16;5106043;28;20427;-65
2021/09/23 00:58:57;;;;;;;12.17;8.30;;;;;;;13.00;66.52;97358.53;5106502;28;20420;-65
2021/09/23 01:01:23;;;;;;;16.70;8.30;;;;;;;12.89;67.29;97362.34;5106862;28;20208;-66
2021/09/23 01:03:49;;;;;;;9.10;7.60;;;;;;;12.95;66.72;97360.03;5097610;28;20500;-66
2021/09/23 01:06:15;;;;;;;11.67;8.03;;;;;;;12.99;66.43;97351.63;5088510;28;20420;-66
2021/09/23 01:08:40;;;;;;;11.30;7.90;;;;;;;12.99;65.89;97354.28;5094186;28;20198;-68
2021/09/23 01:11:06;;;;;;;10.17;7.30;;;;;;;12.93;66.09;97344.41;5095962;28;20232;-67
2021/09/23 01:13:32;;;;;;;11.00;7.93;;;;;;;12.74;66.52;97351.63;5095318;28;20261;-66
2021/09/23 01:15:58;;;;;;;9.33;8.00;;;;;;;12.73;66.59;97354.41;5095576;28;20548;-66
2021/09/23 01:18:24;;;;;;;12.23;7.70;;;;;;;12.79;66.07;97359.00;5094506;28;20416;-65
2021/09/23 01:20:50;;;;;;;10.63;8.40;;;;;;;12.72;65.99;97352.78;5093392;28;20271;-65
2021/09/23 01:23:16;;;;;;;12.83;7.80;;;;;;;12.69;66.51;97356.56;5093517;28;20239;-66
2021/09/23 01:25:42;;;;;;;8.93;7.53;;;;;;;12.72;66.68;97355.41;5094347;28;20811;-66
2021/09/23 01:28:09;;;;;;;8.60;6.90;;;;;;;12.72;66.01;97353.63;5093157;28;20642;-66
2021/09/23 01:30:35;;;;;;;11.30;7.80;;;;;;;12.69;65.95;97348.66;5093515;28;20538;-67
2021/09/23 01:33:01;;;;;;;12.93;7.97;;;;;;;12.66;65.88;97346.34;5094475;28;20967;-66
2021/09/23 01:35:26;;;;;;;11.37;7.83;;;;;;;12.66;66.13;97343.72;5089523;28;20431;-64
2021/09/23 01:37:52;;;;;;;10.90;7.97;;;;;;;12.67;66.08;97340.13;5094872;28;20216;-65
2021/09/23 01:40:18;;;;;;;11.13;8.10;;;;;;;12.66;66.02;97337.66;5095281;28;20509;-69
2021/09/23 01:42:44;;;;;;;9.30;7.30;;;;;;;12.60;66.00;97347.03;5095353;28;20181;-67
2021/09/23 01:45:11;;;;;;;9.83;7.40;;;;;;;12.56;65.83;97348.31;5095551;28;20189;-67
2021/09/23 01:47:37;;;;;;;7.47;6.40;;;;;;;12.52;65.99;97341.72;5094298;28;20515;-66
2021/09/23 01:50:06;;;;;;;10.73;7.13;;;;;;;12.38;65.52;97330.84;5094644;28;20487;-67
2021/09/23 01:52:31;;;;;;;10.30;7.23;;;;;;;12.25;65.91;97344.47;5094976;28;20188;-67
2021/09/23 01:54:57;;;;;;;7.53;6.60;;;;;;;12.24;66.07;97339.34;5094984;28;20419;-65
2021/09/23 01:57:22;;;;;;;8.17;6.37;;;;;;;12.07;66.50;97352.44;5094000;28;20268;-67
2021/09/23 01:59:48;;;;;;;7.23;6.27;;;;;;;12.13;66.60;97346.53;5094244;28;20206;-68
2021/09/23 02:02:14;;;;;;;9.40;7.17;;;;;;;12.10;66.58;97346.03;5085035;28;20185;-67
2021/09/23 02:04:39;;;;;;;7.70;6.93;;;;;;;12.11;66.83;97334.56;5089818;28;20634;-67
2021/09/23 02:07:05;;;;;;;9.63;7.20;;;;;;;12.19;66.82;97318.00;5090119;28;20214;-67
2021/09/23 02:09:32;;;;;;;8.93;6.77;;;;;;;12.23;66.49;97325.41;5094349;28;20209;-65
2021/09/23 02:12:02;;;;;;;13.00;7.80;;;;;;;12.29;66.39;97329.19;5094534;28;20296;-68
2021/09/23 02:14:28;;;;;;;9.90;6.70;;;;;;;12.29;66.57;97332.63;5094240;28;20419;-66
2021/09/23 02:16:54;;;;;;;10.97;7.13;;;;;;;12.21;66.55;97326.56;5093443;28;20427;-68
2021/09/23 02:19:19;;;;;;;10.10;7.60;;;;;;;11.92;67.68;97331.16;5094049;28;20250;-67
2021/09/23 02:21:45;;;;;;;11.43;7.53;;;;;;;11.95;67.96;97330.03;5102473;28;20240;-67
2021/09/23 02:24:10;;;;;;;10.53;7.93;;;;;;;12.09;67.13;97321.59;5092591;28;20177;-66
2021/09/23 02:26:36;;;;;;;13.63;7.80;;;;;;;12.09;66.77;97311.09;5093752;28;20185;-66
2021/09/23 02:29:02;;;;;;;12.53;6.83;;;;;;;12.04;66.53;97312.50;5093207;28;20304;-66
2021/09/23 02:31:27;;;;;;;11.80;8.07;;;;;;;11.67;68.47;97317.09;5092825;28;20212;-66
2021/09/23 02:33:53;;;;;;;12.53;7.67;;;;;;;11.76;67.95;97316.16;5093361;28;20196;-67
2021/09/23 02:36:18;;;;;;;12.43;7.93;;;;;;;11.84;67.67;97308.31;5087443;28;20193;-66
2021/09/23 02:38:44;;;;;;;11.77;7.23;;;;;;;11.91;67.44;97300.63;5101119;28;20206;-67
2021/09/23 02:41:09;;;;;;;9.30;7.50;;;;;;;11.94;67.33;97296.88;5107278;28;20189;-67
2021/09/23 02:43:35;;;;;;;11.20;7.17;;;;;;;11.93;67.82;97282.09;5108440;28;20185;-66
2021/09/23 02:46:01;;;;;;;9.47;6.50;;;;;;;11.97;67.51;97281.63;5095061;28;20188;-66
2021/09/23 02:48:26;;;;;;;9.40;7.03;;;;;;;12.00;66.93;97284.94;5094422;28;20243;-67
2021/09/23 02:50:52;;;;;;;9.63;6.63;;;;;;;11.96;67.08;97285.22;5093955;28;20694;-66
2021/09/23 02:53:18;;;;;;;12.40;5.97;;;;;;;11.83;67.13;97277.81;5094163;28;20237;-66
2021/09/23 02:55:43;;;;;;;11.13;6.70;;;;;;;11.84;67.04;97276.78;5104023;28;20181;-66
2021/09/23 02:58:09;;;;;;;13.00;6.47;;;;;;;11.86;66.95;97271.41;5109802;28;20170;-69
2021/09/23 03:00:34;;;;;;;9.53;7.03;;;;;;;11.81;67.05;97258.75;5109393;28;20228;-67
2021/09/23 03:03:00;;;;;;;8.90;6.63;;;;;;;11.80;67.97;97254.47;5104603;28;20315;-66
2021/09/23 03:05:25;;;;;;;8.80;6.33;;;;;;;11.90;67.31;97250.88;5088587;28;20178;-65
2021/09/23 03:07:51;;;;;;;13.00;7.07;;;;;;;11.94;66.95;97244.34;5093850;28;20712;-66
2021/09/23 03:10:17;;;;;;;7.97;6.90;;;;;;;11.94;67.31;97237.28;5093557;28;20212;-66
2021/09/23 03:12:42;;;;;;;8.00;6.60;;;;;;;11.87;67.05;97246.78;5093631;28;20645;-67
2021/09/23 03:15:08;;;;;;;9.17;7.77;;;;;;;11.78;67.38;97245.94;5094037;28;20186;-67
2021/09/23 03:17:34;;;;;;;8.07;6.43;;;;;;;11.79;66.98;97252.00;5094481;28;20227;-67
2021/09/23 03:19:59;;;;;;;10.27;6.90;;;;;;;11.77;67.13;97249.53;5094131;28;20459;-66
2021/09/23 03:22:26;;;;;;;7.37;6.20;;;;;;;11.77;66.88;97248.72;5096088;28;20200;-66
2021/09/23 03:24:52;;;;;;;7.73;5.93;;;;;;;11.76;67.00;97240.00;5085857;28;20182;-67
2021/09/23 03:27:18;;;;;;;10.63;6.50;;;;;;;11.72;66.78;97243.94;5096001;28;20419;-67
2021/09/23 03:29:44;;;;;;;7.37;6.57;;;;;;;11.65;66.86;97240.31;5095053;28;20197;-67
2021/09/23 03:32:10;;;;;;;9.80;6.63;;;;;;;11.60;67.02;97247.81;5096133;28;20197;-66
2021/09/23 03:34:36;;;;;;;9.20;6.40;;;;;;;11.61;67.04;97245.06;5096138;28;20794;-66
2021/09/23 03:37:02;;;;;;;9.97;6.23;;;;;;;11.63;66.77;97245.72;5095820;28;20224;-66
2021/09/23 03:39:27;;;;;;;7.30;6.30;;;;;;;11.62;66.60;97240.63;5096334;28;20178;-66
2021/09/23 03:41:53;;;;;;;10.10;7.17;;;;;;;11.60;67.10;97226.81;5095835;28;20285;-65
2021/09/23 03:44:18;;;;;;;11.20;7.03;;;;;;;11.64;67.71;97221.13;5096226;28;20180;-66
2021/09/23 03:46:44;;;;;;;11.47;7.20;;;;;;;11.65;67.45;97214.91;5096062;28;20178;-66
2021/09/23 03:49:10;;;;;;;9.77;6.60;;;;;;;11.72;67.30;97225.56;5096308;28;20201;-64
2021/09/23 03:51:35;;;;;;;10.03;7.60;;;;;;;11.71;67.14;97223.94;5096338;28;20625;-66
2021/09/23 03:54:01;;;;;;;9.33;6.43;;;;;;;11.70;67.16;97222.28;5094706;28;20182;-66
2021/09/23 03:56:26;;;;;;;11.93;7.80;;;;;;;11.58;66.75;97218.31;5095974;28;20215;-67
2021/09/23 03:58:52;;;;;;;12.17;8.30;;;;;;;11.46;67.08;97231.72;5095969;28;20261;-67
2021/09/23 04:01:18;;;;;;;8.67;6.70;;;;;;;11.44;67.09;97231.03;5095972;28;20198;-66
2021/09/23 04:03:44;;;;;;;9.10;7.20;;;;;;;11.48;67.50;97219.22;5096672;28;20178;-66
2021/09/23 04:06:09;;;;;;;10.37;7.43;;;;;;;11.49;67.26;97214.81;5096279;28;20234;-67
2021/09/23 04:08:35;;;;;;;8.70;7.20;;;;;;;11.51;67.39;97218.91;5096082;28;20500;-65
2021/09/23 04:11:00;;;;;;;9.17;6.87;;;;;;;11.56;67.13;97215.00;5095032;28;20208;-67
2021/09/23 04:13:26;;;;;;;12.03;7.23;;;;;;;11.59;67.07;97214.69;5094603;28;20181;-66
2021/09/23 04:15:51;;;;;;;11.10;7.00;;;;;;;11.56;66.66;97215.00;5095912;28;20184;-66
2021/09/23 04:18:18;;;;;;;9.97;7.43;;;;;;;11.50;66.72;97217.28;5095639;28;20197;-66
2021/09/23 04:20:44;;;;;;;8.70;6.40;;;;;;;11.43;66.52;97216.28;5096066;28;20668;-66
2021/09/23 04:23:10;;;;;;;14.30;7.37;;;;;;;11.41;66.77;97209.50;5095608;28;20412;-66
2021/09/23 04:25:35;;;;;;;11.97;7.77;;;;;;;11.39;66.82;97204.44;5100344;28;20540;-65
2021/09/23 04:28:02;;;;;;;10.60;8.57;;;;;;;11.37;67.27;97207.22;5096936;28;20258;-67
2021/09/23 04:30:27;;;;;;;11.60;9.20;;;;;;;11.45;67.73;97206.44;5093454;28;20204;-69
2021/09/23 04:32:53;;;;;;;9.90;8.43;;;;;;;11.50;67.55;97198.91;5094772;28;20804;-67
2021/09/23 04:35:18;;;;;;;13.70;8.27;;;;;;;11.53;67.87;97198.59;5095604;28;20228;-66
2021/09/23 04:37:44;;;;;;;11.93;7.97;;;;;;;11.51;67.56;97187.44;5095133;28;20193;-66
2021/09/23 04:40:10;;;;;;;12.67;8.10;;;;;;;11.40;68.04;97185.09;5093954;28;20196;-65
2021/09/23 04:42:36;;;;;;;12.03;7.60;;;;;;;11.46;67.67;97189.72;5095151;28;20204;-67
2021/09/23 04:45:02;;;;;;;9.00;7.77;;;;;;;11.49;67.58;97193.81;5095279;28;20938;-67
2021/09/23 04:47:28;;;;;;;11.63;8.00;;;;;;;11.20;68.84;97179.25;5094694;28;20269;-66
2021/09/23 04:49:53;;;;;;;13.40;8.20;;;;;;;11.20;68.60;97174.84;5094446;28;20542;-67
2021/09/23 04:52:19;;;;;;;18.10;9.33;;;;;;;11.26;69.23;97172.56;5093567;28;20177;-67
2021/09/23 04:54:44;;;;;;;11.47;8.77;;;;;;;11.45;68.50;97168.88;5093513;28;20185;-66
2021/09/23 04:57:10;;;;;;;14.20;9.23;;;;;;;11.51;68.07;97161.19;5095023;28;20212;-69
2021/09/23 04:59:35;;;;;;;17.50;8.87;;;;;;;11.50;67.93;97170.03;5094861;28;20277;-67
2021/09/23 05:02:01;;;;;;;15.90;9.00;;;;;;;11.48;67.80;97172.00;5094763;28;20677;-68
2021/09/23 05:04:27;;;;;;;17.03;11.00;;;;;;;11.47;67.39;97177.41;5095680;28;20174;-66
2021/09/23 05:06:54;;;;;;;32.97;15.07;;;;;;;11.34;67.56;97175.25;5096473;28;20258;-67
2021/09/23 05:09:20;;;;;;;16.57;10.33;;;;;;;11.39;67.51;97174.75;5098632;28;20197;-67
2021/09/23 05:11:45;;;;;;;13.47;10.27;;;;;;;11.42;67.78;97171.81;5097959;28;20869;-67
2021/09/23 05:14:16;;;;;;;23.50;13.00;;;;;;;11.39;67.88;97169.53;5095475;28;20182;-67
2021/09/23 05:16:43;;;;;;;26.63;10.43;;;;;;;11.44;68.50;97170.69;5094744;28;20177;-67
2021/09/23 05:19:10;;;;;;;20.60;11.03;;;;;;;11.54;68.45;97178.41;5094653;28;20472;-66
2021/09/23 05:21:36;;;;;;;26.43;13.53;;;;;;;11.62;67.76;97177.63;5096563;28;20528;-67
2021/09/23 05:24:01;;;;;;;27.33;11.80;;;;;;;11.61;68.15;97170.72;5096366;28;20910;-67
2021/09/23 05:26:27;;;;;;;25.33;11.70;;;;;;;11.71;68.21;97166.19;5088807;28;20174;-68
2021/09/23 05:28:52;;;;;;;19.30;11.90;;;;;;;11.78;67.96;97158.47;5094710;28;20300;-67
2021/09/23 05:31:18;;;;;;;29.33;12.60;;;;;;;11.80;67.78;97152.06;5094824;28;20193;-67
2021/09/23 05:33:44;;;;;;;26.60;12.50;;;;;;;11.84;68.23;97150.75;5093401;28;20182;-67
2021/09/23 05:36:11;;;;;;;18.40;11.60;;;;;;;11.92;68.14;97146.50;5095858;28;20186;-67
2021/09/23 05:38:37;;;;;;;14.57;10.70;;;;;;;11.99;68.12;97142.28;5095418;28;20456;-64
2021/09/23 05:41:02;;;;;;;19.90;11.47;;;;;;;12.18;68.17;97135.88;5095478;28;20534;-64
2021/09/23 05:43:28;;;;;;;14.80;10.90;;;;;;;12.35;67.66;97130.63;5095538;28;20258;-65
2021/09/23 05:45:54;;;;;;;18.00;11.07;;;;;;;12.33;68.18;97120.28;5095382;28;20181;-69
2021/09/23 05:48:21;;;;;;;18.57;10.80;;;;;;;12.57;67.46;97126.50;5096396;28;20174;-68
2021/09/23 05:50:47;;;;;;;15.00;9.97;;;;;;;12.75;66.87;97121.03;5096712;28;21023;-67
2021/09/23 05:53:13;;;;;;;23.67;10.90;;;;;;;12.91;66.48;97114.91;5060462;28;20419;-66
2021/09/23 05:55:39;;;;;;;20.13;11.23;;;;;;;13.08;66.17;97105.16;5093093;28;20808;-66
2021/09/23 05:58:05;;;;;;;14.23;9.60;;;;;;;13.15;65.81;97106.13;5075913;28;20201;-65
2021/09/23 06:00:31;;;;;;;16.03;9.73;;;;;;;13.22;65.61;97101.00;5093320;28;20436;-66
2021/09/23 06:02:57;;;;;;;18.30;9.90;;;;;;;13.35;65.27;97108.31;5093481;28;20477;-67
2021/09/23 06:05:22;;;;;;;15.03;9.50;;;;;;;13.40;65.16;97115.72;5090517;28;20180;-67
2021/09/23 06:07:48;;;;;;;19.80;9.50;;;;;;;13.55;64.70;97114.00;5092973;28;20178;-66
2021/09/23 06:10:13;;;;;;;15.73;8.57;;;;;;;13.46;64.67;97122.94;5093061;28;20205;-66
2021/09/23 06:12:39;;;;;;;18.33;8.67;;;;;;;13.61;64.33;97115.94;5094173;28;20588;-65
2021/09/23 06:15:06;;;;;;;11.83;8.40;;;;;;;13.77;64.03;97112.41;5093506;28;20204;-68
2021/09/23 06:17:31;;;;;;;16.83;9.37;;;;;;;13.97;63.67;97110.13;5094102;28;20174;-65
2021/09/23 06:19:57;;;;;;;15.83;8.30;;;;;;;14.22;62.58;97117.84;5093732;28;20554;-68
2021/09/23 06:22:22;;;;;;;12.20;8.00;;;;;;;14.34;61.62;97112.13;5091742;28;20173;-66
2021/09/23 06:24:48;;;;;;;10.33;7.00;;;;;;;14.52;61.23;97115.25;5092057;28;20194;-66
2021/09/23 06:27:14;;;;;;;13.00;7.40;;;;;;;14.81;60.38;97116.31;5084329;28;20269;-67
2021/09/23 06:29:39;;;;;;;13.70;7.67;;;;;;;15.02;60.08;97112.13;5092979;28;20197;-67
2021/09/23 06:32:05;;;;;;;12.93;7.60;;;;;;;15.40;58.71;97111.19;5095834;28;20176;-66
2021/09/23 06:34:31;;;;;;;8.40;7.20;;;;;;;15.77;57.25;97109.34;5096639;28;20639;-65
2021/09/23 06:36:56;;;;;;;15.20;7.67;;;;;;;16.34;56.71;97110.28;5093617;28;20432;-66
2021/09/23 06:39:22;;;;;;;10.70;5.63;;;;;;;16.23;55.91;97118.75;5092437;28;20668;-67
2021/09/23 06:41:48;;;;;;;12.90;7.40;;;;;;;16.35;55.62;97127.81;5093030;28;20205;-67
2021/09/23 06:44:13;;;;;;;9.70;6.03;;;;;;;16.22;55.68;97122.41;5085332;28;20577;-67
2021/09/23 06:46:39;;;;;;;6.03;5.43;;;;;;;16.52;54.71;97130.97;5092468;28;20177;-65
2021/09/23 06:49:05;;;;;;;34.00;12.73;;;;;;;16.81;54.17;97128.31;5091826;28;20205;-66
2021/09/23 06:51:31;;;;;;;11.37;6.70;;;;;;;16.49;55.24;97122.63;5092849;28;20450;-68
2021/09/23 06:53:57;;;;;;;10.67;5.87;;;;;;;16.59;55.43;97131.03;5092741;28;20602;-68
2021/09/23 06:56:23;;;;;;;8.97;6.13;;;;;;;16.75;54.60;97129.91;5092759;28;20545;-66
2021/09/23 06:58:49;;;;;;;8.43;6.63;;;;;;;16.93;54.45;97120.66;5090509;28;20420;-68
2021/09/23 07:01:15;;;;;;;6.93;6.00;;;;;;;17.25;53.41;97132.47;5092706;28;20440;-68
2021/09/23 07:03:40;;;;;;;10.60;5.47;;;;;;;16.99;53.14;97123.38;5091166;28;20184;-68
2021/09/23 07:06:06;;;;;;;10.70;5.50;;;;;;;17.02;52.68;97119.53;5089263;28;20185;-67
2021/09/23 07:08:32;;;;;;;6.50;5.70;;;;;;;17.40;52.02;97128.84;5092372;28;20213;-66
2021/09/23 07:10:57;;;;;;;13.30;5.57;;;;;;;17.14;52.45;97125.91;5092256;28;20221;-68
2021/09/23 07:13:23;;;;;;;12.50;6.10;;;;;;;17.31;52.16;97126.38;5093275;28;20586;-66
2021/09/23 07:15:48;;;;;;;9.77;5.97;;;;;;;16.94;53.07;97125.78;5091571;28;20181;-68
2021/09/23 07:18:14;;;;;;;8.17;5.20;;;;;;;17.08;52.57;97131.16;5092248;28;20185;-66
2021/09/23 07:20:40;;;;;;;6.73;5.10;;;;;;;17.23;52.51;97129.19;5093284;28;20205;-67
2021/09/23 07:23:05;;;;;;;10.20;5.50;;;;;;;17.09;52.93;97127.50;5090119;28;20227;-66
2021/09/23 07:25:33;;;;;;;6.10;5.47;;;;;;;17.38;52.33;97133.56;5073835;28;20223;-66
2021/09/23 07:28:00;;;;;;;6.20;5.03;;;;;;;17.47;51.91;97132.34;5091793;28;20670;-66
2021/09/23 07:30:26;;;;;;;8.30;5.40;;;;;;;17.33;51.77;97140.25;5091656;28;20459;-66
2021/09/23 07:32:51;;;;;;;6.70;5.43;;;;;;;17.65;51.42;97137.91;5091724;28;20435;-67
2021/09/23 07:35:17;;;;;;;6.67;5.07;;;;;;;17.81;50.74;97131.44;5088239;28;20709;-66
2021/09/23 07:37:43;;;;;;;5.80;4.70;;;;;;;17.12;52.78;97135.06;5090154;28;20195;-66
2021/09/23 07:40:10;;;;;;;5.90;4.23;;;;;;;17.36;52.15;97123.13;5092691;28;20223;-64
2021/09/23 07:42:37;;;;;;;7.07;4.60;;;;;;;17.77;51.27;97129.38;5091091;28;20178;-66
2021/09/23 07:45:04;;;;;;;8.13;4.80;;;;;;;17.91;50.76;97127.59;5097673;28;20476;-67
2021/09/23 07:47:30;;;;;;;5.80;4.37;;;;;;;18.34;49.62;97137.84;5092622;28;20447;-67
2021/09/23 07:49:55;;;;;;;10.53;4.87;;;;;;;18.22;49.65;97142.97;5092351;28;20531;-68
2021/09/23 07:52:21;;;;;;;9.00;5.00;;;;;;;18.43;49.05;97151.72;5092932;28;20684;-67
2021/09/23 07:54:47;;;;;;;5.63;3.93;;;;;;;17.89;49.84;97140.22;5107144;28;20186;-66
2021/09/23 07:57:14;;;;;;;11.73;5.50;;;;;;;18.03;50.18;97138.44;5101683;28;20180;-66
2021/09/23 07:59:40;;;;;;;5.33;4.20;;;;;;;18.53;48.52;97138.06;5095225;28;20454;-65
2021/09/23 08:02:06;;;;;;;7.23;4.07;;;;;;;18.20;49.17;97141.53;5097476;28;20458;-67
2021/09/23 08:04:35;;;;;;;6.97;3.93;;;;;;;18.50;48.32;97139.31;5101000;28;20959;-65
2021/09/23 08:07:01;;;;;;;4.10;3.37;;;;;;;18.51;48.37;97140.94;5096528;28;20424;-67
2021/09/23 08:09:26;;;;;;;4.40;3.47;;;;;;;18.67;47.84;97139.69;5103330;28;20204;-67
2021/09/23 08:11:52;;;;;;;4.80;4.10;;;;;;;18.82;47.68;97142.13;5107584;28;20307;-66
2021/09/23 08:14:18;;;;;;;3.90;3.53;;;;;;;19.02;47.32;97146.63;5104161;28;20186;-66
2021/09/23 08:16:44;;;;;;;4.27;3.80;;;;;;;19.37;47.07;97134.84;5106496;28;20216;-65
2021/09/23 08:19:10;;;;;;;4.10;3.50;;;;;;;19.52;46.41;97130.09;5094717;28;20180;-65
2021/09/23 08:21:36;;;;;;;7.57;4.07;;;;;;;19.59;46.53;97135.38;5094304;28;20288;-65
2021/09/23 08:24:02;;;;;;;8.00;3.90;;;;;;;19.77;46.20;97138.16;5094949;28;20462;-65
2021/09/23 08:26:27;;;;;;;3.90;3.30;;;;;;;19.67;45.56;97132.47;5095664;28;20465;-69
2021/09/23 08:28:54;;;;;;;7.33;4.17;;;;;;;19.89;44.67;97130.34;5103176;28;20229;-68
2021/09/23 08:31:21;;;;;;;4.20;3.30;;;;;;;19.22;45.43;97135.91;5094968;28;20199;-68
2021/09/23 08:33:47;;;;;;;4.57;3.10;;;;;;;19.90;44.31;97131.16;5091622;28;20434;-68
2021/09/23 08:36:13;;;;;;;4.77;2.90;;;;;;;20.03;44.25;97131.09;5093284;28;20696;-68
2021/09/23 08:38:39;;;;;;;5.40;2.90;;;;;;;19.67;45.24;97129.00;5095042;28;20507;-67
2021/09/23 08:41:05;;;;;;;4.43;3.33;;;;;;;20.25;44.57;97130.72;5095432;28;20288;-66
2021/09/23 08:43:32;;;;;;;3.97;2.73;;;;;;;19.72;44.74;97119.38;5095896;28;20262;-67
2021/09/23 08:45:58;;;;;;;3.30;2.70;;;;;;;19.87;44.62;97121.75;5092260;28;20185;-67
2021/09/23 08:48:24;;;;;;;5.80;3.33;;;;;;;19.86;44.84;97120.13;5094187;28;20446;-65
2021/09/23 08:50:50;;;;;;;3.60;3.00;;;;;;;20.22;44.06;97124.00;5093894;28;21025;-66
2021/09/23 08:53:16;;;;;;;6.87;3.27;;;;;;;20.16;44.29;97118.72;5094256;28;20503;-67
2021/09/23 08:55:42;;;;;;;3.60;3.00;;;;;;;20.49;43.75;97112.31;5093158;28;20407;-66
2021/09/23 08:58:08;;;;;;;7.97;3.17;;;;;;;20.80;43.36;97114.09;5093864;28;20182;-66
2021/09/23 09:00:58;;;;;;;4.80;2.80;;;;;;;21.16;42.34;97115.16;5094021;28;20461;-67
2021/09/23 09:03:24;;;;;;;3.57;2.70;;;;;;;21.35;42.20;97107.16;5086444;28;20173;-68
2021/09/23 09:05:53;;;;;;;2.87;2.47;;;;;;;21.53;41.38;97100.97;5090762;28;20525;-67
2021/09/23 09:08:21;;;;;;;5.90;3.23;;;;;;;21.46;41.89;97110.91;5094042;28;20510;-66
2021/09/23 09:10:47;;;;;;;9.23;3.23;;;;;;;21.02;42.79;97119.81;5094021;28;20444;-67
2021/09/23 09:13:13;;;;;;;3.23;2.90;;;;;;;21.57;42.44;97114.66;5094043;28;20419;-66
2021/09/23 09:15:41;;;;;;;3.77;2.80;;;;;;;21.40;42.19;97107.28;5093241;28;20420;-66
2021/09/23 09:18:12;;;;;;;4.77;3.27;;;;;;;21.32;42.39;97112.94;5093168;28;20660;-66
2021/09/23 09:21:08;;;;;;;3.70;2.57;;;;;;;21.67;41.26;97103.50;5093661;28;20434;-69
2021/09/23 09:23:56;;;;;;;4.23;2.73;;;;;;;21.50;42.06;97098.75;5089187;28;20420;-67
2021/09/23 09:26:25;;;;;;;5.83;3.30;;;;;;;21.49;41.22;97086.47;5095170;28;20450;-66
2021/09/23 09:28:56;;;;;;;4.67;3.13;;;;;;;21.84;40.51;97091.13;5108392;28;20447;-70
2021/09/23 09:31:23;;;;;;;2.60;2.40;;;;;;;22.32;40.05;97084.03;5113052;28;20423;-68
2021/09/23 09:33:52;;;;;;;4.43;2.33;;;;;;;22.31;39.49;97082.41;5111489;28;20404;-68
2021/09/23 09:36:28;;;;;;;2.83;2.47;;;;;;;21.78;40.37;97081.38;5106604;28;20547;-68
2021/09/23 09:38:57;;;;;;;5.03;2.43;;;;;;;21.72;40.69;97080.44;5112467;28;20461;-69
2021/09/23 09:41:29;;;;;;;4.50;2.40;;;;;;;21.85;40.86;97083.97;5109261;28;20436;-65
2021/09/23 09:43:59;;;;;;;4.10;3.10;;;;;;;21.29;41.00;97074.22;5093798;28;20542;-67
2021/09/23 09:46:35;;;;;;;6.13;2.47;;;;;;;21.90;40.92;97079.56;5093835;28;20424;-67
2021/09/23 09:49:02;;;;;;;5.77;2.63;;;;;;;22.60;39.62;97081.75;5093147;28;20483;-68
2021/09/23 09:51:35;;;;;;;5.57;2.60;;;;;;;21.95;40.08;97068.22;5092565;28;20510;-68
2021/09/23 09:54:02;;;;;;;2.63;1.83;;;;;;;21.92;38.33;97064.16;5093467;28;20431;-67
2021/09/23 09:56:28;;;;;;;3.00;2.20;;;;;;;22.11;38.51;97064.06;5092970;28;20465;-65
2021/09/23 09:59:16;;;;;;;11.93;2.37;;;;;;;22.21;38.58;97066.97;5091752;28;20412;-66
2021/09/23 10:01:48;;;;;;;2.90;2.70;;;;;;;22.45;38.83;97074.22;5092380;28;20436;-69
2021/09/23 10:04:14;;;;;;;7.57;2.40;;;;;;;22.81;38.25;97064.31;5077701;28;20430;-67
2021/09/23 10:06:41;;;;;;;2.53;2.33;;;;;;;22.64;38.28;97062.34;5092667;28;20419;-66
2021/09/23 10:09:09;;;;;;;3.70;2.60;;;;;;;23.02;38.00;97057.56;5092145;28;20558;-68
2021/09/23 10:11:37;;;;;;;3.50;2.20;;;;;;;23.36;38.00;97043.53;5092086;28;20471;-66
2021/09/23 10:14:03;;;;;;;5.50;2.67;;;;;;;23.55;37.31;97039.59;5095494;28;20504;-66
2021/09/23 10:16:30;;;;;;;2.30;2.10;;;;;;;23.23;37.07;97036.59;5092330;28;21188;-67
2021/09/23 10:18:57;;;;;;;4.13;2.13;;;;;;;23.33;36.97;97031.44;5091737;28;20424;-67
2021/09/23 10:21:26;;;;;;;5.90;2.40;;;;;;;23.60;36.81;97026.34;5092508;28;20444;-67
2021/09/23 10:23:52;;;;;;;3.97;2.67;;;;;;;23.78;36.50;97033.31;5092216;28;20906;-66
2021/09/23 10:26:24;;;;;;;3.50;2.23;;;;;;;22.53;38.33;97039.97;5090873;28;20420;-67
2021/09/23 10:28:50;;;;;;;3.27;2.70;;;;;;;23.21;37.73;97033.34;5073587;28;20500;-65
2021/09/23 10:31:20;;;;;;;3.10;2.43;;;;;;;23.07;36.76;97035.47;5090236;28;20998;-68
2021/09/23 10:33:47;;;;;;;4.80;3.10;;;;;;;23.42;36.45;97039.88;5090491;28;20477;-67
2021/09/23 10:36:14;;;;;;;4.17;2.97;;;;;;;23.60;36.51;97031.69;5094439;28;20428;-67
2021/09/23 10:38:40;;;;;;;3.63;2.13;;;;;;;23.65;35.83;97036.31;5091857;28;20412;-67
2021/09/23 10:41:06;;;;;;;2.83;2.00;;;;;;;24.15;34.53;97031.25;5091553;28;20460;-68
2021/09/23 10:43:32;;;;;;;2.50;2.00;;;;;;;24.01;34.90;97026.22;5092154;28;20441;-66
2021/09/23 10:45:59;;;;;;;3.00;1.80;;;;;;;24.16;35.28;97028.31;5091874;28;20648;-65
2021/09/23 10:48:27;;;;;;;4.60;2.30;;;;;;;24.49;34.22;97023.19;5091414;28;20186;-67
2021/09/23 10:50:53;;;;;;;2.30;2.10;;;;;;;24.33;34.94;97036.34;5091150;28;20443;-66
2021/09/23 10:53:19;;;;;;;2.70;2.50;;;;;;;24.59;34.41;97036.69;5090730;28;20813;-67
2021/09/23 10:55:45;;;;;;;3.60;2.87;;;;;;;24.49;34.75;97036.56;5091177;28;20424;-67
2021/09/23 10:58:13;;;;;;;5.87;2.33;;;;;;;25.03;34.01;97035.16;5091821;28;20243;-68
2021/09/23 11:00:40;;;;;;;3.70;1.77;;;;;;;24.75;33.81;97032.41;5091913;28;20446;-67
2021/09/23 11:03:09;;;;;;;4.53;2.20;;;;;;;25.00;33.21;97029.22;5090700;28;20428;-66
2021/09/23 11:05:35;;;;;;;3.03;2.03;;;;;;;24.62;33.10;97028.19;5089186;28;20416;-66
2021/09/23 11:08:05;;;;;;;2.10;1.90;;;;;;;24.31;33.17;97030.44;5091433;28;20477;-67
2021/09/23 11:10:31;;;;;;;2.20;2.10;;;;;;;24.43;33.30;97027.66;5089846;28;20534;-66
2021/09/23 11:12:58;;;;;;;2.87;2.40;;;;;;;24.22;32.47;97030.03;5090784;28;20481;-66
2021/09/23 11:15:29;;;;;;;2.70;2.23;;;;;;;24.18;32.59;97036.94;5091753;28;20181;-66
2021/09/23 11:17:56;;;;;;;5.20;1.80;;;;;;;23.69;32.71;97020.59;5090006;28;20412;-67
2021/09/23 11:20:24;;;;;;;2.63;2.10;;;;;;;24.50;32.09;97012.22;5091863;28;20447;-67
2021/09/23 11:22:53;;;;;;;2.67;2.23;;;;;;;25.06;31.20;97013.22;5091845;28;20586;-66
2021/09/23 11:25:27;;;;;;;2.50;2.30;;;;;;;25.41;30.87;97006.66;5092488;28;20416;-67
2021/09/23 11:27:54;;;;;;;5.33;2.10;;;;;;;25.79;30.48;97010.22;5091923;28;20424;-66